Time;durP1;ratioP1;P1;durP2;ratioP2;P2;SDS_P1;SDS_P2;PMS_P1;PMS_P2;Temp;Humidity;BMP_temperature;BMP_pressure;BME280_temperature;BME280_humidity;BME280_pressure;Samples;Min_cycle;Max_cycle;Signal;HPM_P1;HPM_P2
2022/08/03 00:01:40;;;;;;;6.60;3.10;;;19.40;99.90;;;;;;6101462;23;20638;-86
2022/08/03 00:04:07;;;;;;;8.10;3.63;;;19.40;99.90;;;;;;6127136;23;20204;-87
2022/08/03 00:06:33;;;;;;;4.23;3.03;;;19.40;99.90;;;;;;6101236;23;20862;-87
2022/08/03 00:08:59;;;;;;;8.70;4.17;;;19.40;99.90;;;;;;6126914;23;20625;-87
2022/08/03 00:11:25;;;;;;;5.40;2.87;;;19.40;99.90;;;;;;6125596;23;20638;-87
2022/08/03 00:13:52;;;;;;;12.67;3.37;;;19.40;99.90;;;;;;6125710;23;20555;-88
2022/08/03 00:16:18;;;;;;;8.30;2.73;;;19.40;99.90;;;;;;6125713;23;20227;-87
2022/08/03 00:18:43;;;;;;;6.17;3.37;;;19.40;99.90;;;;;;6077675;23;20259;-87
2022/08/03 00:21:10;;;;;;;5.97;3.40;;;19.40;99.90;;;;;;6077487;23;20271;-88
2022/08/03 00:23:36;;;;;;;4.60;2.77;;;19.40;99.90;;;;;;6101935;23;20156;-87
2022/08/03 00:26:02;;;;;;;4.83;2.40;;;19.30;99.90;;;;;;6077146;23;20247;-87
2022/08/03 00:28:27;;;;;;;3.87;2.60;;;19.30;99.90;;;;;;6077645;23;20196;-88
2022/08/03 00:30:54;;;;;;;5.23;3.23;;;19.30;99.90;;;;;;6125986;23;20207;-88
2022/08/03 00:33:20;;;;;;;7.03;3.03;;;19.30;99.90;;;;;;6078350;23;20609;-88
2022/08/03 00:35:46;;;;;;;8.57;2.40;;;19.30;99.90;;;;;;6126753;23;20578;-87
2022/08/03 00:38:12;;;;;;;8.00;3.07;;;19.30;99.90;;;;;;6125255;23;20271;-87
2022/08/03 00:40:38;;;;;;;5.80;2.87;;;19.40;99.90;;;;;;6101094;23;20200;-88
2022/08/03 00:43:05;;;;;;;9.00;2.50;;;19.40;99.90;;;;;;6101211;23;20593;-88
2022/08/03 00:45:36;;;;;;;5.93;3.03;;;19.40;99.90;;;;;;6100927;23;20192;-88
2022/08/03 00:48:04;;;;;;;6.73;3.43;;;19.40;99.90;;;;;;6126334;23;20492;-88
2022/08/03 00:50:34;;;;;;;10.03;2.70;;;19.40;99.90;;;;;;6124990;23;20200;-89
2022/08/03 00:53:02;;;;;;;9.10;3.30;;;19.40;99.90;;;;;;6072171;23;20201;-88
2022/08/03 00:55:27;;;;;;;5.10;2.63;;;19.40;99.90;;;;;;6025106;23;20204;-88
2022/08/03 00:57:54;;;;;;;5.23;2.57;;;19.40;99.90;;;;;;6048559;23;20674;-88
2022/08/03 01:00:22;;;;;;;10.23;3.10;;;19.40;99.90;;;;;;6048507;23;20569;-88
2022/08/03 01:02:49;;;;;;;5.83;2.73;;;19.40;99.90;;;;;;6072591;23;20164;-88
2022/08/03 01:05:15;;;;;;;5.50;2.90;;;19.40;99.90;;;;;;6048307;23;20196;-88
2022/08/03 01:08:02;;;;;;;8.20;3.70;;;19.40;99.90;;;;;;6024792;23;20220;-88
2022/08/03 01:11:05;;;;;;;4.30;2.27;;;19.40;99.90;;;;;;6072310;23;20204;-89
2022/08/03 01:13:46;;;;;;;7.70;2.87;;;19.40;99.90;;;;;;6072007;23;20196;-89
2022/08/03 01:16:40;;;;;;;6.03;3.03;;;19.40;99.90;;;;;;6072234;23;20608;-88
2022/08/03 01:19:30;;;;;;;5.43;2.90;;;19.40;99.90;;;;;;6072292;23;20254;-88
2022/08/03 01:22:26;;;;;;;7.07;2.70;;;19.40;99.90;;;;;;6072042;23;20223;-88
2022/08/03 01:25:37;;;;;;;4.37;2.97;;;19.30;99.90;;;;;;6072201;23;20665;-88
2022/08/03 01:28:21;;;;;;;5.10;2.03;;;19.30;99.90;;;;;;6065366;23;20205;-88
2022/08/03 01:30:48;;;;;;;8.70;2.50;;;19.30;99.90;;;;;;6072007;23;20204;-88
2022/08/03 01:33:27;;;;;;;3.10;1.93;;;19.30;99.90;;;;;;6048328;23;20168;-88
2022/08/03 01:35:57;;;;;;;4.93;3.07;;;19.30;99.90;;;;;;6072687;23;20172;-87
2022/08/03 01:38:28;;;;;;;6.47;2.47;;;19.30;99.90;;;;;;6072070;23;20720;-88
2022/08/03 01:40:55;;;;;;;5.23;2.20;;;19.30;99.90;;;;;;6072062;23;20228;-88
2022/08/03 01:43:28;;;;;;;7.73;2.87;;;19.30;99.90;;;;;;6071782;23;20196;-88
2022/08/03 01:45:56;;;;;;;3.60;2.47;;;19.30;99.90;;;;;;6072175;23;20200;-88
2022/08/03 01:48:23;;;;;;;5.83;3.03;;;19.30;99.90;;;;;;6072137;23;20156;-89
2022/08/03 01:50:50;;;;;;;4.77;2.00;;;19.30;99.90;;;;;;6048651;23;20176;-88
2022/08/03 01:53:17;;;;;;;8.20;2.27;;;19.30;99.90;;;;;;6071787;23;20263;-88
2022/08/03 01:55:47;;;;;;;8.23;3.47;;;19.30;99.90;;;;;;6071859;23;20646;-88
2022/08/03 01:58:15;;;;;;;7.77;2.40;;;19.30;99.90;;;;;;6071598;23;20201;-88
2022/08/03 02:00:42;;;;;;;5.03;2.50;;;19.30;99.90;;;;;;6048017;23;20212;-88
2022/08/03 02:03:11;;;;;;;11.10;2.40;;;19.30;99.90;;;;;;6024797;23;20172;-89
2022/08/03 02:05:39;;;;;;;3.20;2.03;;;19.30;99.90;;;;;;6049095;23;20157;-89
2022/08/03 02:08:09;;;;;;;4.60;1.97;;;19.30;99.90;;;;;;6072082;23;20236;-89
2022/08/03 02:10:38;;;;;;;6.97;2.57;;;19.30;99.90;;;;;;6096651;23;20248;-89
2022/08/03 02:13:06;;;;;;;5.40;2.20;;;19.30;99.90;;;;;;6071588;23;20570;-88
2022/08/03 02:15:34;;;;;;;6.87;2.60;;;19.30;99.90;;;;;;6048565;23;20559;-89
2022/08/03 02:18:02;;;;;;;4.80;2.23;;;19.30;99.90;;;;;;6072603;23;20157;-89
2022/08/03 02:20:29;;;;;;;7.60;3.17;;;19.30;99.90;;;;;;6047945;23;20208;-88
2022/08/03 02:22:54;;;;;;;6.33;2.73;;;19.30;99.90;;;;;;6024475;23;20200;-88
2022/08/03 02:25:20;;;;;;;5.97;2.27;;;19.30;99.90;;;;;;6024197;23;20196;-89
2022/08/03 02:27:57;;;;;;;9.60;2.90;;;19.30;99.90;;;;;;6047708;23;20200;-88
2022/08/03 02:30:32;;;;;;;5.50;2.80;;;19.30;99.90;;;;;;6072027;23;20187;-89
2022/08/03 02:32:59;;;;;;;5.90;2.63;;;19.30;99.90;;;;;;6072556;23;20172;-88
2022/08/03 02:35:27;;;;;;;14.03;2.87;;;19.30;99.90;;;;;;6024513;23;20204;-89
2022/08/03 02:38:01;;;;;;;5.30;2.30;;;19.30;99.90;;;;;;6071758;23;20764;-89
2022/08/03 02:40:28;;;;;;;10.47;2.57;;;19.30;99.90;;;;;;6071650;23;20673;-88
2022/08/03 02:42:58;;;;;;;3.00;2.17;;;19.30;99.90;;;;;;6047867;23;20205;-88
2022/08/03 02:45:26;;;;;;;4.80;2.03;;;19.20;99.90;;;;;;6071311;23;20168;-89
2022/08/03 02:47:56;;;;;;;9.17;2.97;;;19.30;99.90;;;;;;6072208;23;20149;-89
2022/08/03 02:50:23;;;;;;;7.10;3.03;;;19.30;99.90;;;;;;6071542;23;20540;-89
2022/08/03 02:52:51;;;;;;;12.03;2.90;;;19.30;99.90;;;;;;6098138;23;20211;-88
2022/08/03 02:55:18;;;;;;;3.17;2.53;;;19.20;99.90;;;;;;6125001;23;20226;-88
2022/08/03 02:57:46;;;;;;;4.93;2.27;;;19.20;99.90;;;;;;6100731;23;20692;-88
2022/08/03 03:00:12;;;;;;;5.73;1.90;;;19.20;99.90;;;;;;6100248;23;20188;-89
2022/08/03 03:02:40;;;;;;;6.10;2.77;;;19.10;99.90;;;;;;6101336;23;20560;-89
2022/08/03 03:05:07;;;;;;;5.33;2.43;;;19.10;99.90;;;;;;6100676;23;20204;-89
2022/08/03 03:07:35;;;;;;;4.07;2.00;;;19.10;99.90;;;;;;6100280;23;20216;-88
2022/08/03 03:10:03;;;;;;;3.47;2.23;;;19.10;99.90;;;;;;6100570;23;20196;-89
2022/08/03 03:12:29;;;;;;;5.33;2.40;;;19.10;99.90;;;;;;6077248;23;20614;-88
2022/08/03 03:14:55;;;;;;;6.50;2.63;;;19.10;99.90;;;;;;6126861;23;20164;-89
2022/08/03 03:17:22;;;;;;;7.03;2.30;;;19.10;99.90;;;;;;6124874;23;20633;-89
2022/08/03 03:19:51;;;;;;;7.83;2.70;;;19.10;99.90;;;;;;6124520;23;20240;-89
2022/08/03 03:22:17;;;;;;;6.00;3.63;;;19.10;99.90;;;;;;6101189;23;20207;-89
2022/08/03 03:24:45;;;;;;;4.60;2.23;;;19.10;99.90;;;;;;6126504;23;20204;-89
2022/08/03 03:27:13;;;;;;;6.50;2.53;;;19.20;99.90;;;;;;6102586;23;20160;-89
2022/08/03 03:29:39;;;;;;;12.10;2.80;;;19.20;99.90;;;;;;6102998;23;20650;-89
2022/08/03 03:32:06;;;;;;;11.93;3.23;;;19.10;99.90;;;;;;6126528;23;20223;-89
2022/08/03 03:34:32;;;;;;;9.90;2.07;;;19.10;99.90;;;;;;6102422;23;20629;-89
2022/08/03 03:36:58;;;;;;;7.37;2.33;;;19.10;99.90;;;;;;6078222;23;20207;-88
2022/08/03 03:39:23;;;;;;;4.73;2.43;;;19.20;99.90;;;;;;6078157;23;20160;-88
2022/08/03 03:41:49;;;;;;;3.33;2.17;;;19.20;99.90;;;;;;6102660;23;20545;-89
2022/08/03 03:44:15;;;;;;;6.50;2.27;;;19.10;99.90;;;;;;6102068;23;20672;-89
2022/08/03 03:46:41;;;;;;;5.77;1.87;;;19.10;99.90;;;;;;6101937;23;20200;-89
2022/08/03 03:49:07;;;;;;;4.17;1.70;;;19.20;99.90;;;;;;6102142;23;20266;-89
2022/08/03 03:51:33;;;;;;;9.27;2.70;;;19.20;99.90;;;;;;6126217;23;20211;-89
2022/08/03 03:54:01;;;;;;;7.27;2.30;;;19.20;99.90;;;;;;6126917;23;20207;-89
2022/08/03 03:56:28;;;;;;;6.33;1.97;;;19.20;99.90;;;;;;6126443;23;20196;-89
2022/08/03 03:58:55;;;;;;;4.70;2.43;;;19.20;99.90;;;;;;6126038;23;20196;-89
2022/08/03 04:01:21;;;;;;;5.23;2.30;;;19.20;99.90;;;;;;6128380;23;20642;-89
2022/08/03 04:03:47;;;;;;;7.40;2.37;;;19.20;99.90;;;;;;6127019;23;20192;-90
2022/08/03 04:11:53;;;;;;;11.00;3.20;;;19.30;99.90;;;;;;6127863;23;20196;-89
2022/08/03 04:14:27;;;;;;;7.33;2.23;;;19.30;99.90;;;;;;6102500;23;20195;-89
2022/08/03 04:16:56;;;;;;;6.20;2.00;;;19.30;99.90;;;;;;6125810;23;20196;-88
2022/08/03 04:19:35;;;;;;;3.17;1.47;;;19.40;99.90;;;;;;6126019;23;20251;-88
2022/08/03 04:22:07;;;;;;;5.97;2.67;;;19.40;99.90;;;;;;6125975;23;20594;-89
2022/08/03 04:24:39;;;;;;;7.00;2.10;;;19.40;99.90;;;;;;6125898;23;20322;-88
2022/08/03 04:27:08;;;;;;;5.67;2.00;;;19.40;99.90;;;;;;6127579;23;20152;-89
2022/08/03 04:29:36;;;;;;;4.00;1.87;;;19.40;99.90;;;;;;6128649;23;20485;-89
2022/08/03 04:32:04;;;;;;;5.37;1.77;;;19.40;99.90;;;;;;6101848;23;20196;-88
2022/08/03 04:34:30;;;;;;;10.00;2.10;;;19.50;99.90;;;;;;6101089;23;20212;-88
2022/08/03 04:36:59;;;;;;;6.33;2.40;;;19.50;99.90;;;;;;6102592;23;20228;-89
2022/08/03 04:39:28;;;;;;;7.23;2.17;;;19.50;99.90;;;;;;6127356;23;20168;-89
2022/08/03 04:41:58;;;;;;;4.13;1.67;;;19.60;99.90;;;;;;6127225;23;20180;-89
2022/08/03 04:44:27;;;;;;;5.57;2.17;;;19.50;99.90;;;;;;6126070;23;20207;-89
2022/08/03 04:46:54;;;;;;;6.17;2.43;;;19.60;99.90;;;;;;6102024;23;20196;-89
2022/08/03 04:49:21;;;;;;;6.90;2.07;;;19.70;99.90;;;;;;6102037;23;20535;-89
2022/08/03 04:51:48;;;;;;;7.20;2.13;;;19.70;99.90;;;;;;6101423;23;20664;-89
2022/08/03 04:54:15;;;;;;;7.57;3.00;;;19.80;99.90;;;;;;6127194;23;20211;-89
2022/08/03 04:56:42;;;;;;;8.20;1.90;;;19.80;99.90;;;;;;6102479;23;20532;-89
2022/08/03 04:59:09;;;;;;;7.03;2.73;;;19.80;99.90;;;;;;6125441;23;20196;-89
2022/08/03 05:01:34;;;;;;;5.73;2.20;;;19.90;99.90;;;;;;6078102;23;20215;-89
2022/08/03 05:04:00;;;;;;;5.33;2.33;;;20.00;99.90;;;;;;6100996;23;20708;-89
2022/08/03 05:06:26;;;;;;;6.57;2.30;;;20.00;99.90;;;;;;6077702;23;20164;-88
2022/08/03 05:08:52;;;;;;;6.23;2.70;;;20.10;99.90;;;;;;6078740;23;20168;-89
2022/08/03 05:11:18;;;;;;;5.83;2.03;;;20.10;99.90;;;;;;6077928;23;20243;-89
2022/08/03 05:13:44;;;;;;;10.20;2.93;;;20.20;99.90;;;;;;6077579;23;20637;-89
2022/08/03 05:16:10;;;;;;;10.23;2.63;;;20.20;99.90;;;;;;6101391;23;20211;-89
2022/08/03 05:18:37;;;;;;;5.30;2.43;;;20.30;99.90;;;;;;6125809;23;20219;-89
2022/08/03 05:21:03;;;;;;;8.77;2.17;;;20.30;99.90;;;;;;6102100;23;20191;-89
2022/08/03 05:23:29;;;;;;;4.33;2.03;;;20.50;99.90;;;;;;6101594;23;20641;-89
2022/08/03 05:25:55;;;;;;;11.00;4.60;;;20.80;99.90;;;;;;6101699;23;20196;-89
2022/08/03 05:28:22;;;;;;;5.10;2.60;;;21.60;99.90;;;;;;6077257;23;20589;-88
2022/08/03 05:30:47;;;;;;;7.33;2.33;;;22.40;99.90;;;;;;6125902;23;20199;-89
2022/08/03 05:33:13;;;;;;;3.37;2.17;;;22.80;99.90;;;;;;6101454;23;20175;-88
2022/08/03 05:35:39;;;;;;;7.23;2.87;;;23.60;99.90;;;;;;6078550;23;20159;-90
2022/08/03 05:38:05;;;;;;;5.17;2.47;;;24.00;99.90;;;;;;6100922;23;20196;-89
2022/08/03 05:40:31;;;;;;;7.23;2.20;;;24.60;99.90;;;;;;6101330;23;20254;-89
2022/08/03 05:42:57;;;;;;;11.93;2.33;;;25.40;99.90;;;;;;6101592;23;20246;-91
2022/08/03 05:45:24;;;;;;;9.60;3.23;;;25.60;99.90;;;;;;6105363;23;20657;-89
2022/08/03 05:47:50;;;;;;;4.97;1.67;;;27.00;99.90;;;;;;6126326;23;20600;-89
2022/08/03 05:50:18;;;;;;;8.23;2.17;;;27.10;99.90;;;;;;6126682;23;20196;-90
2022/08/03 05:52:44;;;;;;;3.88;1.98;;;27.10;99.90;;;;;;6126759;23;20215;-91
2022/08/03 05:55:10;;;;;;;5.15;1.92;;;27.80;99.90;;;;;;6125282;23;20235;-90
2022/08/03 05:57:37;;;;;;;5.32;2.30;;;28.50;99.90;;;;;;6125738;23;20212;-91
2022/08/03 06:00:09;;;;;;;4.85;1.67;;;28.50;99.90;;;;;;6102464;23;20272;-91
2022/08/03 06:02:35;;;;;;;11.15;1.85;;;28.20;99.90;;;;;;6102432;23;20188;-91
2022/08/03 06:05:01;;;;;;;6.85;2.00;;;27.90;99.90;;;;;;6101644;23;20263;-91
2022/08/03 06:07:27;;;;;;;10.85;2.20;;;28.50;99.90;;;;;;6102049;23;20252;-91
2022/08/03 06:09:53;;;;;;;10.13;2.10;;;29.00;99.90;;;;;;6101275;23;20196;-91
2022/08/03 06:12:19;;;;;;;4.50;1.77;;;29.10;99.90;;;;;;6077732;23;20523;-90
2022/08/03 06:14:45;;;;;;;7.88;1.98;;;29.20;99.90;;;;;;6103200;23;20167;-93
2022/08/03 06:17:11;;;;;;;6.22;1.85;;;29.70;99.90;;;;;;6102253;23;20200;-90
2022/08/03 06:19:37;;;;;;;5.45;2.13;;;29.70;99.90;;;;;;6104792;23;20196;-91
2022/08/03 06:22:02;;;;;;;4.43;2.00;;;30.60;99.90;;;;;;6126359;23;20665;-91
2022/08/03 06:24:28;;;;;;;7.80;1.90;;;30.90;99.90;;;;;;6101900;23;20199;-94
2022/08/03 06:26:54;;;;;;;5.13;1.52;;;29.60;99.90;;;;;;6102373;23;20163;-90
2022/08/03 06:29:20;;;;;;;7.72;2.25;;;28.70;99.90;;;;;;6101921;23;20223;-91
2022/08/03 06:31:46;;;;;;;4.97;2.15;;;27.50;99.90;;;;;;6101591;23;20202;-89
2022/08/03 06:34:11;;;;;;;8.07;2.10;;;27.40;99.90;;;;;;6079402;23;20200;-90
2022/08/03 06:36:37;;;;;;;4.90;2.45;;;26.90;99.90;;;;;;6103198;23;20195;-90
2022/08/03 06:39:04;;;;;;;6.40;2.00;;;27.20;99.90;;;;;;6127815;23;20221;-90
2022/08/03 06:41:29;;;;;;;4.97;2.03;;;28.10;99.90;;;;;;6101879;23;20211;-90
2022/08/03 06:43:55;;;;;;;4.80;2.33;;;27.60;99.90;;;;;;6079042;23;20192;-90
2022/08/03 06:46:21;;;;;;;6.43;2.70;;;27.80;99.90;;;;;;6078984;23;20206;-91
2022/08/03 06:48:47;;;;;;;3.90;2.03;;;29.20;99.90;;;;;;6103892;23;20204;-91
2022/08/03 06:51:13;;;;;;;8.52;2.70;;;30.10;99.90;;;;;;6101510;23;20200;-92
2022/08/03 06:53:40;;;;;;;6.07;2.10;;;28.40;99.90;;;;;;6101850;23;20180;-89
2022/08/03 06:56:07;;;;;;;4.72;2.50;;;27.30;99.90;;;;;;6100608;23;20255;-90
2022/08/03 06:58:33;;;;;;;6.10;2.65;;;27.40;99.90;;;;;;6102622;23;20208;-90
2022/08/03 07:00:59;;;;;;;8.00;2.38;;;28.60;99.90;;;;;;6102470;23;20710;-90
2022/08/03 07:03:25;;;;;;;10.57;2.92;;;29.30;99.90;;;;;;6127137;23;20187;-90
2022/08/03 07:05:51;;;;;;;5.15;2.80;;;29.40;99.90;;;;;;6103716;23;20171;-91
2022/08/03 07:08:17;;;;;;;8.48;2.72;;;29.90;99.90;;;;;;6079631;23;20196;-93
2022/08/03 07:10:44;;;;;;;6.55;3.08;;;29.60;99.90;;;;;;6127717;23;20192;-90
2022/08/03 07:13:09;;;;;;;9.93;3.90;;;30.30;99.90;;;;;;6102980;23;20279;-91
2022/08/03 07:15:36;;;;;;;8.73;3.08;;;30.00;99.90;;;;;;6103347;23;20516;-92
2022/08/03 07:18:01;;;;;;;7.18;2.50;;;30.60;99.90;;;;;;6104633;23;20582;-91
2022/08/03 07:20:27;;;;;;;6.47;2.88;;;31.70;99.90;;;;;;6079409;23;20207;-89
2022/08/03 07:22:53;;;;;;;12.52;2.58;;;31.60;99.90;;;;;;6103640;23;20196;-91
2022/08/03 07:25:19;;;;;;;6.03;2.55;;;31.40;99.90;;;;;;6079504;23;20196;-91
2022/08/03 07:27:46;;;;;;;11.80;2.75;;;32.70;99.90;;;;;;6082066;23;20733;-90
2022/08/03 07:30:13;;;;;;;4.97;2.00;;;33.70;99.90;;;;;;6128228;23;20224;-90
2022/08/03 07:32:39;;;;;;;8.20;1.88;;;31.10;99.90;;;;;;6128546;23;20160;-91
2022/08/03 07:35:06;;;;;;;6.88;1.70;;;29.50;99.90;;;;;;6102371;23;20204;-91
2022/08/03 07:37:32;;;;;;;8.15;2.55;;;26.90;99.90;;;;;;6128250;23;20191;-90
2022/08/03 07:39:59;;;;;;;6.38;2.40;;;26.20;99.90;;;;;;6128006;23;20641;-90
2022/08/03 07:42:29;;;;;;;4.72;2.38;;;27.70;99.90;;;;;;6128501;23;20246;-89
2022/08/03 07:44:55;;;;;;;5.93;2.00;;;29.90;99.90;;;;;;6104739;23;20160;-89
2022/08/03 07:47:24;;;;;;;8.18;2.40;;;31.40;99.90;;;;;;6128520;23;20192;-89
2022/08/03 07:49:50;;;;;;;8.63;2.85;;;32.30;99.90;;;;;;6129325;23;20275;-89
2022/08/03 07:55:00;;;;;;;13.25;3.80;;;32.20;99.90;;;;;;6127489;23;20199;-90
2022/08/03 07:57:26;;;;;;;5.53;2.63;;;33.50;99.90;;;;;;6078978;23;20161;-88
2022/08/03 07:59:52;;;;;;;4.63;2.63;;;33.20;99.90;;;;;;6126905;23;20156;-87
2022/08/03 08:02:18;;;;;;;6.10;2.50;;;32.20;99.90;;;;;;6078725;23;20208;-86
2022/08/03 08:04:43;;;;;;;6.32;2.95;;;30.10;99.90;;;;;;6077011;23;20207;-86
2022/08/03 08:07:09;;;;;;;13.82;2.92;;;30.40;99.90;;;;;;6077032;23;20538;-86
2022/08/03 08:09:35;;;;;;;5.85;2.42;;;29.80;99.90;;;;;;6077526;23;20233;-86
2022/08/03 08:12:00;;;;;;;3.92;3.00;;;30.50;99.90;;;;;;6077687;23;20164;-86
2022/08/03 08:14:26;;;;;;;5.78;2.97;;;29.70;99.90;;;;;;6100825;23;20192;-86
2022/08/03 08:16:52;;;;;;;9.02;2.85;;;30.80;99.90;;;;;;6077042;23;20304;-86
2022/08/03 08:19:18;;;;;;;9.13;3.50;;;32.40;99.90;;;;;;6100783;23;20203;-86
2022/08/03 08:21:43;;;;;;;5.53;3.30;;;31.90;99.90;;;;;;6076760;23;20681;-86
2022/08/03 08:24:09;;;;;;;6.65;3.08;;;31.80;99.90;;;;;;6076422;23;20196;-86
2022/08/03 08:26:35;;;;;;;11.25;3.50;;;30.80;99.90;;;;;;6101837;23;20160;-86
2022/08/03 08:29:02;;;;;;;10.75;3.00;;;31.40;99.90;;;;;;6100872;23;20536;-86
2022/08/03 08:31:28;;;;;;;8.38;3.58;;;30.10;99.90;;;;;;6100627;23;20200;-87
2022/08/03 08:33:54;;;;;;;8.93;2.78;;;29.90;99.90;;;;;;6076608;23;20202;-86
2022/08/03 08:36:19;;;;;;;6.35;2.97;;;29.80;99.90;;;;;;6100539;23;20255;-86
2022/08/03 08:38:45;;;;;;;9.10;3.63;;;30.80;99.90;;;;;;6078914;23;20203;-90
2022/08/03 08:41:12;;;;;;;6.85;3.08;;;31.30;99.90;;;;;;6103515;23;20206;-90
2022/08/03 08:43:38;;;;;;;7.43;3.35;;;32.30;99.90;;;;;;6103792;23;20204;-92
2022/08/03 08:46:07;;;;;;;11.80;3.22;;;31.70;99.90;;;;;;6127650;23;20215;-89
2022/08/03 08:48:34;;;;;;;9.27;3.20;;;31.90;99.90;;;;;;6127647;23;20188;-90
2022/08/03 08:51:01;;;;;;;9.20;2.95;;;32.20;99.90;;;;;;6104188;23;20211;-89
2022/08/03 08:53:28;;;;;;;8.02;2.95;;;32.90;99.90;;;;;;6078879;23;20200;-89
2022/08/03 08:55:59;;;;;;;8.93;3.13;;;33.20;99.90;;;;;;6102087;23;20195;-89
2022/08/03 08:58:27;;;;;;;9.32;2.95;;;32.70;99.90;;;;;;6126293;23;20232;-89
2022/08/03 09:00:53;;;;;;;6.88;2.70;;;32.70;99.90;;;;;;6125822;23;20232;-89
2022/08/03 09:03:19;;;;;;;11.45;3.78;;;32.10;99.90;;;;;;6077874;23;20170;-89
2022/08/03 09:05:45;;;;;;;6.00;2.90;;;32.10;99.90;;;;;;6102581;23;20251;-89
2022/08/03 09:08:12;;;;;;;9.98;3.53;;;32.60;99.90;;;;;;6077072;23;21100;-90
2022/08/03 09:10:37;;;;;;;7.20;2.95;;;32.50;99.90;;;;;;6126622;23;20287;-89
2022/08/03 09:13:03;;;;;;;6.97;3.58;;;31.70;99.90;;;;;;6104694;23;20629;-90
2022/08/03 09:15:32;;;;;;;8.80;3.80;;;32.00;99.90;;;;;;6102138;23;20192;-90
2022/08/03 09:18:00;;;;;;;8.05;3.58;;;33.10;99.90;;;;;;6129335;23;20456;-89
2022/08/03 09:20:28;;;;;;;13.63;3.47;;;33.00;99.90;;;;;;6126864;23;20208;-90
2022/08/03 09:23:03;;;;;;;3.88;3.00;;;32.50;99.90;;;;;;6126441;23;20195;-89
2022/08/03 09:25:34;;;;;;;8.00;2.95;;;31.30;99.90;;;;;;6127913;23;20297;-89
2022/08/03 09:28:10;;;;;;;4.00;2.88;;;32.00;99.90;;;;;;6128030;23;20227;-90
2022/08/03 09:30:39;;;;;;;5.90;2.92;;;31.40;99.90;;;;;;6128724;23;20199;-90
2022/08/03 09:33:07;;;;;;;10.57;3.28;;;30.20;99.90;;;;;;6129093;23;20482;-88
2022/08/03 09:35:41;;;;;;;7.90;3.50;;;29.40;99.90;;;;;;6103601;23;20636;-89
2022/08/03 09:38:11;;;;;;;8.98;3.58;;;29.00;99.90;;;;;;6127334;23;20630;-89
2022/08/03 09:40:38;;;;;;;12.43;4.20;;;29.30;99.90;;;;;;6128211;23;20278;-90
2022/08/03 09:43:06;;;;;;;10.95;4.07;;;30.10;99.90;;;;;;6080095;23;20191;-89
2022/08/03 09:45:36;;;;;;;13.02;4.00;;;30.60;99.90;;;;;;6104451;23;20192;-88
2022/08/03 09:48:20;;;;;;;12.48;5.60;;;31.40;99.90;;;;;;6104068;23;20156;-88
2022/08/03 09:50:54;;;;;;;9.20;4.28;;;31.20;99.90;;;;;;6122386;23;20184;-87
2022/08/03 09:53:21;;;;;;;7.43;3.90;;;31.40;99.90;;;;;;6048215;23;20208;-87
2022/08/03 09:55:55;;;;;;;14.80;4.50;;;31.60;99.90;;;;;;6048235;23;20220;-87
2022/08/03 09:58:22;;;;;;;13.05;4.70;;;30.80;99.90;;;;;;6071819;23;20705;-88
2022/08/03 10:01:04;;;;;;;6.90;3.28;;;31.70;99.90;;;;;;6047751;23;20336;-87
2022/08/03 10:03:33;;;;;;;7.60;3.08;;;32.40;99.90;;;;;;6097110;23;20523;-88
2022/08/03 10:06:21;;;;;;;7.60;3.40;;;32.70;99.90;;;;;;6072127;23;20161;-88
2022/08/03 10:09:13;;;;;;;6.93;3.58;;;32.10;99.90;;;;;;6072326;23;20184;-90
2022/08/03 10:11:40;;;;;;;6.68;2.97;;;30.70;99.90;;;;;;6072199;23;20189;-89
2022/08/03 10:14:09;;;;;;;9.73;3.40;;;30.90;99.90;;;;;;6024496;23;20622;-87
2022/08/03 10:16:39;;;;;;;8.43;4.30;;;31.20;99.90;;;;;;6096813;23;20201;-85
2022/08/03 10:19:06;;;;;;;10.80;4.13;;;30.30;99.90;;;;;;6096748;23;20275;-88
2022/08/03 10:21:37;;;;;;;8.50;3.80;;;30.30;99.90;;;;;;6023853;23;20275;-87
2022/08/03 10:24:06;;;;;;;10.00;4.38;;;30.10;99.90;;;;;;6071866;23;20153;-86
2022/08/03 10:26:40;;;;;;;8.05;3.17;;;30.00;99.90;;;;;;6047246;23;20200;-85
2022/08/03 10:29:17;;;;;;;6.50;3.15;;;29.80;99.90;;;;;;6047761;23;20528;-86
2022/08/03 10:31:45;;;;;;;10.00;4.10;;;29.90;99.90;;;;;;6072189;23;20219;-86
2022/08/03 10:34:18;;;;;;;5.70;3.42;;;29.90;99.90;;;;;;6074029;23;20197;-87
2022/08/03 10:36:46;;;;;;;8.45;4.35;;;29.20;99.90;;;;;;6074561;23;20227;-87
2022/08/03 10:39:13;;;;;;;14.90;4.22;;;28.30;99.90;;;;;;6074183;23;20165;-86
2022/08/03 10:41:41;;;;;;;14.00;3.78;;;28.20;99.90;;;;;;6100176;23;20180;-87
2022/08/03 10:44:37;;;;;;;7.38;3.78;;;28.40;99.90;;;;;;6025858;23;20223;-87
2022/08/03 10:47:04;;;;;;;9.55;3.85;;;27.60;99.90;;;;;;6071183;23;20258;-87
2022/08/03 10:49:31;;;;;;;8.93;4.22;;;27.80;99.90;;;;;;6049482;23;20247;-87
2022/08/03 10:51:56;;;;;;;11.00;4.68;;;28.00;99.90;;;;;;6078588;23;20642;-86
2022/08/03 10:57:52;;;;;;;5.10;3.95;;;27.70;99.90;;;;;;6129028;23;20137;-88
2022/08/03 11:00:23;;;;;;;10.98;4.90;;;28.10;99.90;;;;;;6128345;23;20160;-88
2022/08/03 11:03:05;;;;;;;9.75;4.25;;;28.40;99.90;;;;;;6105508;23;20187;-86
2022/08/03 11:05:37;;;;;;;12.77;3.30;;;27.30;99.90;;;;;;6128234;23;20202;-88
2022/08/03 11:08:23;;;;;;;6.60;3.25;;;27.20;99.90;;;;;;6134704;23;20196;-90
2022/08/03 11:10:51;;;;;;;11.80;3.50;;;27.30;99.90;;;;;;6137662;23;20200;-91
2022/08/03 11:13:23;;;;;;;10.88;3.15;;;27.20;99.90;;;;;;6137244;23;20192;-90
2022/08/03 11:15:54;;;;;;;12.70;4.75;;;28.00;99.90;;;;;;6134228;23;20215;-90
2022/08/03 11:18:21;;;;;;;10.93;3.10;;;27.90;99.90;;;;;;6132760;23;20163;-89
2022/08/03 11:20:58;;;;;;;15.02;3.90;;;28.20;99.90;;;;;;6103416;23;20218;-87
2022/08/03 11:23:46;;;;;;;13.68;3.97;;;27.30;99.90;;;;;;6102906;23;20530;-86
2022/08/03 11:26:17;;;;;;;9.23;3.83;;;27.60;99.90;;;;;;6126999;23;20247;-87
2022/08/03 11:28:45;;;;;;;18.55;3.75;;;27.70;99.90;;;;;;6128563;23;20192;-86
2022/08/03 11:31:23;;;;;;;7.53;3.35;;;28.20;99.90;;;;;;6127076;23;20283;-87
2022/08/03 11:34:09;;;;;;;11.77;3.60;;;28.80;99.90;;;;;;6128403;23;20199;-86
2022/08/03 11:37:12;;;;;;;9.35;3.40;;;29.00;99.90;;;;;;6102652;23;20641;-86
2022/08/03 11:39:44;;;;;;;8.10;3.33;;;27.50;99.90;;;;;;6127033;23;20191;-87
2022/08/03 11:42:22;;;;;;;12.23;3.10;;;27.00;99.90;;;;;;6126748;23;20511;-86
2022/08/03 11:44:58;;;;;;;16.00;3.40;;;27.30;99.90;;;;;;6127300;23;20159;-88
2022/08/03 11:47:27;;;;;;;11.10;3.47;;;27.10;99.90;;;;;;6101677;23;20219;-87
2022/08/03 11:50:00;;;;;;;9.75;3.00;;;27.60;99.90;;;;;;6126158;23;21056;-87
2022/08/03 11:52:32;;;;;;;9.35;3.28;;;28.00;99.90;;;;;;6103148;23;20302;-87
2022/08/03 11:54:58;;;;;;;11.40;3.63;;;27.40;99.90;;;;;;6103108;23;20207;-87
2022/08/03 11:57:31;;;;;;;7.90;3.40;;;27.60;99.90;;;;;;6101473;23;20161;-88
2022/08/03 11:59:57;;;;;;;14.85;3.70;;;27.70;99.90;;;;;;6126702;23;20235;-87
2022/08/03 12:02:23;;;;;;;12.35;3.83;;;27.30;99.90;;;;;;6079399;23;20242;-88
2022/08/03 12:05:00;;;;;;;9.93;3.70;;;27.10;99.90;;;;;;6127136;23;20283;-87
2022/08/03 12:07:28;;;;;;;11.27;3.63;;;26.80;99.90;;;;;;6129464;23;20652;-88
2022/08/03 12:10:24;;;;;;;6.95;3.40;;;27.10;99.90;;;;;;6127394;23;20196;-89
2022/08/03 12:12:58;;;;;;;9.55;3.47;;;26.60;99.90;;;;;;6097500;23;20920;-89
2022/08/03 12:15:28;;;;;;;14.15;3.30;;;26.30;99.90;;;;;;6126705;23;20463;-89
2022/08/03 12:17:55;;;;;;;8.90;3.58;;;26.30;99.90;;;;;;6079580;23;20145;-88
2022/08/03 12:20:24;;;;;;;10.15;3.00;;;26.50;99.90;;;;;;6077477;23;20196;-88
2022/08/03 12:22:50;;;;;;;8.90;2.97;;;26.50;99.90;;;;;;6125778;23;20200;-89
2022/08/03 12:25:22;;;;;;;12.75;4.07;;;26.50;99.90;;;;;;6126092;23;20283;-88
2022/08/03 12:27:49;;;;;;;8.80;2.70;;;26.40;99.90;;;;;;6126015;23;20203;-90
2022/08/03 12:30:15;;;;;;;8.75;2.90;;;26.40;99.90;;;;;;6101599;23;20161;-88
2022/08/03 12:32:42;;;;;;;6.22;2.97;;;26.40;99.90;;;;;;6080586;23;20163;-87
2022/08/03 12:35:09;;;;;;;7.15;2.97;;;26.40;99.90;;;;;;6126241;23;20202;-89
2022/08/03 12:37:35;;;;;;;7.43;3.22;;;26.10;99.90;;;;;;6126455;23;20199;-89
2022/08/03 12:40:05;;;;;;;8.07;3.08;;;26.30;99.90;;;;;;6102059;23;20267;-89
2022/08/03 12:42:35;;;;;;;6.07;2.80;;;26.70;99.90;;;;;;6102440;23;20614;-88
2022/08/03 12:45:24;;;;;;;5.88;2.88;;;26.70;99.90;;;;;;6128838;23;20444;-89
2022/08/03 12:48:00;;;;;;;8.80;3.13;;;26.80;99.90;;;;;;6130782;23;20264;-89
2022/08/03 12:50:35;;;;;;;11.98;2.80;;;27.10;99.90;;;;;;6130839;23;20204;-90
2022/08/03 12:53:04;;;;;;;7.25;3.15;;;27.00;99.90;;;;;;6132730;23;20211;-89
2022/08/03 12:55:34;;;;;;;6.90;2.97;;;27.00;99.90;;;;;;6130236;23;20203;-88
2022/08/03 12:58:03;;;;;;;8.48;3.53;;;27.10;99.90;;;;;;6081938;23;20223;-91
2022/08/03 13:00:29;;;;;;;11.82;3.25;;;26.60;99.90;;;;;;6131817;23;20634;-95
2022/08/03 13:03:00;;;;;;;8.63;3.15;;;26.60;99.90;;;;;;6131960;23;20168;-92
2022/08/03 13:05:25;;;;;;;7.93;2.55;;;26.30;99.90;;;;;;6129231;23;20900;-90
2022/08/03 13:07:51;;;;;;;7.53;3.00;;;26.60;99.90;;;;;;6127778;23;20274;-90